Highland Township, Michigan
Current Conditions -  °F | °C
As of 3:53 AM on Saturday 20 Dec 2014 (Local Time) from KPTK Reporting Station
Overcast Overcast  
Wind Chill: 21°   Ceiling: 2300
Heat Index: 21°   Visibility: 9mi
Dew Point: 19°   Wind: 0mph
Humidity: 92%   Direction: NA
Pressure: 30.27"   Gusts: NA
Location:  42.6632°N, 83.6457°W
Report Text: KPTK 200853Z AUTO 00000KT 9SM OVC023 M06/M07 A3027 RMK AO2 SLP264 I3000 T10611072 53006
Loading
Personal Weather Stations






























Interactive Weather Map New forecast layout! Learn more

10-Day Weather Forecast

Advertisements
Track Severe Weather on mobile